Eden, Arizona
Current Conditions -  °F | °C
As of 12:51 PM on Sunday 23 Nov 2014 (Local Time) from KSAD Reporting Station
Clear Clear  
Wind Chill: 65°   Ceiling: Unl
Heat Index: 65°   Visibility: 10mi
Dew Point: 25°   Wind: 23mph
Humidity: 22%   Direction: 300°WNW
Pressure: 29.96"   Gusts: 36mph
Location:  32.96°N, 109.89°W
Report Text: KSAD 231951Z AUTO 30020G31KT 10SM CLR 18/M04 A2996 RMK AO2 PK WND 31033/1900 SLP122 T01831039
Loading
Personal Weather Stations






























Interactive Weather Map New forecast layout! Learn more

10-Day Weather Forecast

Advertisements
Track Severe Weather on mobile